createdAt,value
2024-04-25T00:00:11.756Z,0.20
2024-04-25T00:01:13.605Z,0.20
2024-04-25T00:02:15.480Z,0.25
2024-04-25T00:03:17.228Z,0.20
2024-04-25T00:04:19.014Z,0.20
2024-04-25T00:05:23.472Z,0.20
2024-04-25T00:06:25.310Z,0.20
2024-04-25T00:07:27.085Z,0.30
2024-04-25T00:08:28.992Z,0.30
2024-04-25T00:09:30.772Z,0.22
2024-04-25T00:10:32.498Z,0.20
2024-04-25T00:11:34.301Z,0.20
2024-04-25T00:12:36.034Z,0.20
2024-04-25T00:13:37.712Z,0.20
2024-04-25T00:14:39.506Z,0.20
2024-04-25T00:15:41.265Z,0.20
2024-04-25T00:16:42.985Z,0.20
2024-04-25T00:17:44.745Z,0.28
2024-04-25T00:18:46.597Z,0.20
2024-04-25T00:19:48.403Z,0.20
2024-04-25T00:20:50.684Z,0.20
2024-04-25T00:21:52.476Z,0.25
2024-04-25T00:22:54.128Z,0.20
2024-04-25T00:23:55.917Z,0.20
2024-04-25T00:24:57.754Z,0.20
2024-04-25T00:25:59.505Z,0.30
2024-04-25T00:27:01.323Z,0.20
2024-04-25T00:28:03.140Z,0.20
2024-04-25T00:29:04.966Z,0.22
2024-04-25T00:30:07.220Z,0.30
2024-04-25T00:31:08.906Z,0.25
2024-04-25T00:32:10.652Z,0.22
2024-04-25T00:33:12.514Z,0.30
2024-04-25T00:34:14.245Z,0.30
2024-04-25T00:35:15.958Z,0.30
2024-04-25T00:36:17.617Z,0.30
2024-04-25T00:37:19.369Z,0.20
2024-04-25T00:38:21.106Z,0.20
2024-04-25T00:39:22.821Z,0.20
2024-04-25T00:40:24.540Z,0.30
2024-04-25T00:41:26.406Z,0.25
2024-04-25T00:42:28.163Z,0.20
2024-04-25T00:43:31.245Z,0.20
2024-04-25T00:44:32.992Z,0.30
2024-04-25T00:45:34.711Z,0.20
2024-04-25T00:46:37.495Z,0.20
2024-04-25T00:47:40.183Z,0.30
2024-04-25T00:48:42.161Z,0.30
2024-04-25T00:49:44.596Z,0.20
2024-04-25T00:50:47.435Z,0.20
2024-04-25T00:51:51.451Z,0.15
2024-04-25T00:52:53.279Z,0.20
2024-04-25T00:53:55.149Z,0.20
2024-04-25T00:54:57.239Z,0.32
2024-04-25T00:56:00.460Z,0.20
2024-04-25T00:57:03.876Z,0.20
2024-04-25T00:58:06.067Z,0.20
2024-04-25T00:59:08.175Z,0.20
2024-04-25T01:00:12.888Z,0.30
2024-04-25T01:01:16.835Z,0.30
2024-04-25T01:02:19.695Z,0.22
2024-04-25T01:03:21.863Z,0.20
2024-04-25T01:04:24.159Z,0.20
2024-04-25T01:05:27.798Z,0.30
2024-04-25T01:06:30.206Z,0.22
2024-04-25T01:07:31.892Z,0.20
2024-04-25T01:08:34.276Z,0.30
2024-04-25T01:09:36.192Z,0.10
2024-04-25T01:10:37.938Z,0.20
2024-04-25T01:11:39.820Z,0.30
2024-04-25T01:12:41.746Z,0.20
2024-04-25T01:13:43.572Z,0.30
2024-04-25T01:14:45.604Z,0.30
2024-04-25T01:15:47.598Z,0.20
2024-04-25T01:16:49.337Z,0.28
2024-04-25T01:17:51.185Z,0.20
2024-04-25T01:18:52.954Z,0.22
2024-04-25T01:19:54.800Z,0.30
2024-04-25T01:20:56.550Z,0.30
2024-04-25T01:21:58.417Z,0.30
2024-04-25T01:23:01.330Z,0.22
2024-04-25T01:24:04.147Z,0.20
2024-04-25T01:25:07.733Z,0.20
2024-04-25T01:26:12.372Z,0.22
2024-04-25T01:27:14.929Z,0.20
2024-04-25T01:28:17.705Z,0.30
2024-04-25T01:29:20.024Z,0.20
2024-04-25T01:30:22.398Z,0.30
2024-04-25T01:31:26.433Z,0.20
2024-04-25T01:32:30.085Z,0.30
2024-04-25T01:33:35.851Z,0.20
2024-04-25T01:34:37.695Z,0.30
2024-04-25T01:35:39.960Z,0.20
2024-04-25T01:36:42.398Z,0.30
2024-04-25T01:37:44.195Z,0.20
2024-04-25T01:38:46.130Z,0.20
2024-04-25T01:39:47.936Z,0.20
2024-04-25T01:40:49.765Z,0.20
2024-04-25T01:41:51.475Z,0.22
2024-04-25T01:42:53.343Z,0.25
2024-04-25T01:43:55.027Z,0.30
2024-04-25T01:44:56.827Z,0.20
2024-04-25T01:45:58.493Z,0.30
2024-04-25T01:47:00.146Z,0.20
2024-04-25T01:48:02.020Z,0.20
2024-04-25T01:49:04.082Z,0.30
2024-04-25T01:50:06.326Z,0.13
2024-04-25T01:51:08.110Z,0.20
2024-04-25T01:52:09.923Z,0.20
2024-04-25T01:53:11.769Z,0.20
2024-04-25T01:54:13.583Z,0.20
2024-04-25T01:55:15.540Z,0.30
2024-04-25T01:56:17.486Z,0.30
2024-04-25T01:57:19.249Z,0.20
2024-04-25T01:58:21.014Z,0.20
2024-04-25T01:59:22.718Z,0.20
2024-04-25T02:00:24.465Z,0.20
2024-04-25T02:01:26.222Z,0.20
2024-04-25T02:02:28.097Z,0.20
2024-04-25T02:03:30.185Z,0.22
2024-04-25T02:04:31.977Z,0.20
2024-04-25T02:05:33.838Z,0.20
2024-04-25T02:06:35.637Z,0.20
2024-04-25T02:07:37.413Z,0.20
2024-04-25T02:08:39.219Z,0.20
2024-04-25T02:09:41.013Z,0.30
2024-04-25T02:10:42.755Z,0.30
2024-04-25T02:11:44.606Z,0.20
2024-04-25T02:12:46.367Z,0.30
2024-04-25T02:13:48.083Z,0.30
2024-04-25T02:14:49.840Z,0.20
2024-04-25T02:15:51.675Z,0.22
2024-04-25T02:16:53.390Z,0.30
2024-04-25T02:17:55.284Z,0.20
2024-04-25T02:18:57.215Z,0.20
2024-04-25T02:19:59.076Z,0.20
2024-04-25T02:21:00.870Z,0.30
2024-04-25T02:22:02.659Z,0.20
2024-04-25T02:23:04.582Z,0.20
2024-04-25T02:24:06.524Z,0.20
2024-04-25T02:25:08.282Z,0.22
2024-04-25T02:26:10.981Z,0.30
2024-04-25T02:27:12.737Z,0.30
2024-04-25T02:28:14.483Z,0.20
2024-04-25T02:29:16.325Z,0.25
2024-04-25T02:30:18.054Z,0.20
2024-04-25T02:31:19.810Z,0.30
2024-04-25T02:32:21.664Z,0.20
2024-04-25T02:33:23.476Z,0.30
2024-04-25T02:34:25.214Z,0.20
2024-04-25T02:35:26.956Z,0.20
2024-04-25T02:36:28.759Z,0.20
2024-04-25T02:37:30.562Z,0.30
2024-04-25T02:38:32.319Z,0.20
2024-04-25T02:39:34.268Z,0.20
2024-04-25T02:40:36.403Z,0.30
2024-04-25T02:41:38.208Z,0.30
2024-04-25T02:42:39.990Z,0.30
2024-04-25T02:43:41.770Z,0.20
2024-04-25T02:44:43.603Z,0.28
2024-04-25T02:45:45.342Z,0.20
2024-04-25T02:46:47.135Z,0.20
2024-04-25T02:47:48.992Z,0.20
2024-04-25T02:48:50.853Z,0.20
2024-04-25T02:49:52.617Z,0.20
2024-04-25T02:50:54.434Z,0.25
2024-04-25T02:51:56.231Z,0.20
2024-04-25T02:52:57.918Z,0.30
2024-04-25T02:53:59.944Z,0.20
2024-04-25T02:55:01.673Z,0.30
2024-04-25T02:56:04.503Z,0.30
2024-04-25T02:57:06.358Z,0.20
2024-04-25T02:58:08.067Z,0.20
2024-04-25T02:59:09.855Z,0.20
2024-04-25T03:00:12.362Z,0.20
2024-04-25T03:01:14.073Z,0.30
2024-04-25T03:02:16.343Z,0.30
2024-04-25T03:03:18.244Z,0.30
2024-04-25T03:04:20.230Z,0.30
2024-04-25T03:05:21.934Z,0.20
2024-04-25T03:06:26.133Z,0.30
2024-04-25T03:07:27.849Z,0.20
2024-04-25T03:08:29.626Z,0.20
2024-04-25T03:09:31.978Z,0.30
2024-04-25T03:10:33.881Z,0.20
2024-04-25T03:11:35.793Z,0.30
2024-04-25T03:12:37.516Z,0.30
2024-04-25T03:13:41.465Z,0.20
2024-04-25T03:14:46.556Z,0.30
2024-04-25T03:15:48.400Z,0.25
2024-04-25T03:16:50.278Z,0.20
2024-04-25T03:17:52.236Z,0.20
2024-04-25T03:18:54.257Z,0.30
2024-04-25T03:19:56.101Z,0.25
2024-04-25T03:21:16.174Z,0.20
2024-04-25T03:22:18.024Z,0.20
2024-04-25T03:23:19.757Z,0.30
2024-04-25T03:24:21.643Z,0.30
2024-04-25T03:25:23.448Z,0.20
2024-04-25T03:26:25.231Z,0.20
2024-04-25T03:27:26.954Z,0.30
2024-04-25T03:28:28.827Z,0.20
2024-04-25T03:29:30.569Z,0.17
2024-04-25T03:30:32.288Z,0.20
2024-04-25T03:31:34.046Z,0.30
2024-04-25T03:32:36.007Z,0.30
2024-04-25T03:33:37.796Z,0.30
2024-04-25T03:34:39.575Z,0.30
2024-04-25T03:35:41.346Z,0.30
2024-04-25T03:36:43.117Z,0.25
2024-04-25T03:37:45.840Z,0.22
2024-04-25T03:38:47.537Z,0.30
2024-04-25T03:39:49.312Z,0.20
2024-04-25T03:40:51.082Z,0.28
2024-04-25T03:41:52.921Z,0.30
2024-04-25T03:42:54.664Z,0.20
2024-04-25T03:43:56.483Z,0.30
2024-04-25T03:44:58.232Z,0.30
2024-04-25T03:45:59.930Z,0.30
2024-04-25T03:47:01.562Z,0.30
2024-04-25T03:48:03.404Z,0.30
2024-04-25T03:49:05.468Z,0.20
2024-04-25T03:50:07.759Z,0.20
2024-04-25T03:51:09.625Z,0.30
2024-04-25T03:52:11.427Z,0.40
2024-04-25T03:53:14.401Z,0.30
2024-04-25T03:54:16.619Z,0.30
2024-04-25T03:55:18.720Z,0.30
2024-04-25T03:56:20.664Z,0.20
2024-04-25T03:57:22.545Z,0.20
2024-04-25T03:58:24.303Z,0.30
2024-04-25T03:59:26.147Z,0.20
2024-04-25T04:00:27.912Z,0.30
2024-04-25T04:01:29.635Z,0.30
2024-04-25T04:02:31.552Z,0.30
2024-04-25T04:03:33.455Z,0.30
2024-04-25T04:04:35.310Z,0.28
2024-04-25T04:05:37.114Z,0.20
2024-04-25T04:06:39.497Z,0.20
2024-04-25T04:07:43.001Z,0.20
2024-04-25T04:08:44.769Z,0.30
2024-04-25T04:09:46.490Z,0.30
2024-04-25T04:10:48.222Z,0.30
2024-04-25T04:11:50.214Z,0.28
2024-04-25T04:12:52.154Z,0.30
2024-04-25T04:13:53.874Z,0.30
2024-04-25T04:14:55.617Z,0.30
2024-04-25T04:15:57.474Z,0.30
2024-04-25T04:16:59.322Z,0.30
2024-04-25T04:18:01.140Z,0.30
2024-04-25T04:19:02.937Z,0.20
2024-04-25T04:20:05.196Z,0.30
2024-04-25T04:21:07.713Z,0.30
2024-04-25T04:22:10.344Z,0.25
2024-04-25T04:23:12.289Z,0.20
2024-04-25T04:24:13.947Z,0.22
2024-04-25T04:25:15.755Z,0.20
2024-04-25T04:26:17.519Z,0.20
2024-04-25T04:27:19.290Z,0.22
2024-04-25T04:28:21.099Z,0.30
2024-04-25T04:29:23.394Z,0.30
2024-04-25T04:30:25.153Z,0.28
2024-04-25T04:31:26.907Z,0.30
2024-04-25T04:32:28.955Z,0.30
2024-04-25T04:33:31.016Z,0.30
2024-04-25T04:34:32.884Z,0.30
2024-04-25T04:35:34.691Z,0.30
2024-04-25T04:36:36.436Z,0.30
2024-04-25T04:37:39.374Z,0.20
2024-04-25T04:38:41.057Z,0.20
2024-04-25T04:39:42.748Z,0.20
2024-04-25T04:40:44.582Z,0.20
2024-04-25T04:41:46.424Z,0.20
2024-04-25T04:42:48.146Z,0.20
2024-04-25T04:43:49.879Z,0.30
2024-04-25T04:44:51.751Z,0.30
2024-04-25T04:45:53.424Z,0.30
2024-04-25T04:46:55.226Z,0.30
2024-04-25T04:47:57.119Z,0.30
2024-04-25T04:48:59.087Z,0.30
2024-04-25T04:50:00.747Z,0.20
2024-04-25T04:51:03.124Z,0.30
2024-04-25T04:52:05.041Z,0.30
2024-04-25T04:53:06.738Z,0.20
2024-04-25T04:54:08.535Z,0.30
2024-04-25T04:55:10.284Z,0.30
2024-04-25T04:56:12.134Z,0.20
2024-04-25T04:57:13.884Z,0.30
2024-04-25T04:58:15.662Z,0.30
2024-04-25T04:59:17.460Z,0.30
2024-04-25T05:00:19.290Z,0.30
2024-04-25T05:01:21.173Z,0.25
2024-04-25T05:02:22.983Z,0.38
2024-04-25T05:03:24.905Z,0.15
2024-04-25T05:04:26.614Z,0.30
2024-04-25T05:05:28.385Z,0.30
2024-04-25T05:06:30.153Z,0.22
2024-04-25T05:07:34.936Z,0.20
2024-04-25T05:08:37.648Z,0.20
2024-04-25T05:09:39.527Z,0.30
2024-04-25T05:10:41.289Z,0.20
2024-04-25T05:11:43.095Z,0.20
2024-04-25T05:12:44.871Z,0.20
2024-04-25T05:13:46.598Z,0.20
2024-04-25T05:14:48.341Z,0.22
2024-04-25T05:15:50.255Z,0.20
2024-04-25T05:16:52.004Z,0.30
2024-04-25T05:17:54.314Z,0.30
2024-04-25T05:18:56.040Z,0.30
2024-04-25T05:19:57.775Z,0.20
2024-04-25T05:20:59.534Z,0.20
2024-04-25T05:22:01.277Z,0.30
2024-04-25T05:23:03.123Z,0.17
2024-04-25T05:24:05.186Z,0.25
2024-04-25T05:25:09.947Z,0.30
2024-04-25T05:26:11.857Z,0.20
2024-04-25T05:27:13.624Z,0.30
2024-04-25T05:28:15.354Z,0.30
2024-04-25T05:29:17.167Z,0.20
2024-04-25T05:30:22.439Z,0.20
2024-04-25T05:31:24.118Z,0.20
2024-04-25T05:32:25.944Z,0.20
2024-04-25T05:33:27.760Z,0.30
2024-04-25T05:34:29.554Z,0.20
2024-04-25T05:35:31.441Z,0.30
2024-04-25T05:36:34.899Z,0.20
2024-04-25T05:37:36.680Z,0.20
2024-04-25T05:38:38.544Z,0.28
2024-04-25T05:39:40.341Z,0.20
2024-04-25T05:40:42.063Z,0.20
2024-04-25T05:41:43.801Z,0.20
2024-04-25T05:42:45.539Z,0.30
2024-04-25T05:43:47.292Z,0.22
2024-04-25T05:44:49.653Z,0.20
2024-04-25T05:45:51.398Z,0.20
2024-04-25T05:46:53.118Z,0.20
2024-04-25T05:47:54.957Z,0.20
2024-04-25T05:48:56.765Z,0.20
2024-04-25T05:49:58.543Z,0.20
2024-04-25T05:51:00.648Z,0.20
2024-04-25T05:52:02.322Z,0.30
2024-04-25T05:53:04.805Z,0.20
2024-04-25T05:54:06.706Z,0.20
2024-04-25T05:55:08.546Z,0.20
2024-04-25T05:56:10.279Z,0.20
2024-04-25T05:57:12.014Z,0.20
2024-04-25T05:58:13.755Z,0.20
2024-04-25T05:59:15.462Z,0.20
2024-04-25T06:00:17.417Z,0.20
2024-04-25T06:01:19.272Z,0.20
2024-04-25T06:02:21.122Z,0.20
2024-04-25T06:03:22.914Z,0.20
2024-04-25T06:04:24.647Z,0.20
2024-04-25T06:05:26.503Z,0.20
2024-04-25T06:06:28.320Z,0.30
2024-04-25T06:07:30.090Z,0.20
2024-04-25T06:08:31.923Z,0.20
2024-04-25T06:09:33.657Z,0.20
2024-04-25T06:10:35.601Z,0.20
2024-04-25T06:11:37.718Z,0.20
2024-04-25T06:12:39.555Z,0.20
2024-04-25T06:13:41.274Z,0.20
2024-04-25T06:14:43.187Z,0.20
2024-04-25T06:15:44.932Z,0.20
2024-04-25T06:16:46.769Z,0.25
2024-04-25T06:17:48.638Z,0.20
2024-04-25T06:18:50.493Z,0.20
2024-04-25T06:19:52.284Z,0.20
2024-04-25T06:20:53.998Z,0.10
2024-04-25T06:21:55.757Z,0.20
2024-04-25T06:22:59.144Z,0.20
2024-04-25T06:24:01.268Z,0.20
2024-04-25T06:25:03.184Z,0.30
2024-04-25T06:26:05.182Z,0.20
2024-04-25T06:27:06.966Z,0.20
2024-04-25T06:28:08.649Z,0.20
2024-04-25T06:29:10.372Z,0.20
2024-04-25T06:30:12.154Z,0.20
2024-04-25T06:31:13.857Z,0.20
2024-04-25T06:32:15.614Z,0.20
2024-04-25T06:33:17.585Z,0.15
2024-04-25T06:34:19.455Z,0.20
2024-04-25T06:35:21.206Z,0.10
2024-04-25T06:36:22.916Z,0.20
2024-04-25T06:37:24.658Z,0.20
2024-04-25T06:38:26.397Z,0.20
2024-04-25T06:39:28.112Z,0.20
2024-04-25T06:40:29.877Z,0.20
2024-04-25T06:41:39.944Z,0.20
2024-04-25T06:42:47.930Z,0.20
2024-04-25T06:43:49.633Z,0.20
2024-04-25T06:44:53.862Z,0.20
2024-04-25T06:45:56.138Z,0.20
2024-04-25T06:46:58.142Z,0.10
2024-04-25T06:48:00.078Z,0.20
2024-04-25T06:49:01.993Z,0.20
2024-04-25T06:50:03.916Z,0.20
2024-04-25T06:51:06.018Z,0.17
2024-04-25T06:52:07.682Z,0.20
2024-04-25T06:53:10.541Z,0.20
2024-04-25T06:54:12.310Z,0.20
2024-04-25T06:55:14.075Z,0.20
2024-04-25T06:56:15.775Z,0.20
2024-04-25T06:57:17.561Z,0.20
2024-04-25T06:58:19.307Z,0.20
2024-04-25T06:59:21.115Z,0.20
2024-04-25T07:00:23.209Z,0.20
2024-04-25T07:01:24.930Z,0.20
2024-04-25T07:02:26.837Z,0.20
2024-04-25T07:03:28.589Z,0.13
2024-04-25T07:04:30.501Z,0.10
2024-04-25T07:05:32.293Z,0.20
2024-04-25T07:06:34.069Z,0.20
2024-04-25T07:07:35.805Z,0.20
2024-04-25T07:08:37.478Z,0.20
2024-04-25T07:09:39.229Z,0.10
2024-04-25T07:10:41.043Z,0.20
2024-04-25T07:11:42.902Z,0.20
2024-04-25T07:12:44.622Z,0.20
2024-04-25T07:13:46.298Z,0.20
2024-04-25T07:14:48.131Z,0.20
2024-04-25T07:15:50.096Z,0.20
2024-04-25T07:16:51.891Z,0.20
2024-04-25T07:17:54.716Z,0.13
2024-04-25T07:18:56.605Z,0.17
2024-04-25T07:19:58.285Z,0.20
2024-04-25T07:21:00.026Z,0.20
2024-04-25T07:22:01.781Z,0.20
2024-04-25T07:23:03.703Z,0.20
2024-04-25T07:24:05.614Z,0.20
2024-04-25T07:25:07.314Z,0.20
2024-04-25T07:26:09.044Z,0.20
2024-04-25T07:27:10.950Z,0.20
2024-04-25T07:28:12.679Z,0.20
2024-04-25T07:29:14.414Z,0.20
2024-04-25T07:30:16.208Z,0.20
2024-04-25T07:31:17.951Z,0.20
2024-04-25T07:32:19.967Z,0.20
2024-04-25T07:33:21.812Z,0.10
2024-04-25T07:34:23.569Z,0.20
2024-04-25T07:35:25.301Z,0.20
2024-04-25T07:36:27.014Z,0.20
2024-04-25T07:37:32.821Z,0.20
2024-04-25T07:38:34.671Z,0.20
2024-04-25T07:39:36.526Z,0.20
2024-04-25T07:40:38.455Z,0.20
2024-04-25T07:41:40.306Z,0.20
2024-04-25T07:42:42.039Z,0.20
2024-04-25T07:43:43.785Z,0.20
2024-04-25T07:44:45.530Z,0.10
2024-04-25T07:45:47.629Z,0.20
2024-04-25T07:46:49.406Z,0.20
2024-04-25T07:47:51.215Z,0.20
2024-04-25T07:48:53.079Z,0.20
2024-04-25T07:49:54.824Z,0.20
2024-04-25T07:50:56.544Z,0.20
2024-04-25T07:51:58.439Z,0.20
2024-04-25T07:53:00.250Z,0.20
2024-04-25T07:54:02.498Z,0.20
2024-04-25T07:55:04.824Z,0.20
2024-04-25T07:56:06.793Z,0.20
2024-04-25T07:57:08.529Z,0.20
2024-04-25T07:58:10.247Z,0.10
2024-04-25T07:59:12.012Z,0.20
2024-04-25T08:00:14.081Z,0.15
2024-04-25T08:01:16.400Z,0.13
2024-04-25T08:02:18.249Z,0.20
2024-04-25T08:03:20.329Z,0.20
2024-04-25T08:04:22.262Z,0.20
2024-04-25T08:05:23.980Z,0.20
2024-04-25T08:06:25.887Z,0.10
2024-04-25T08:07:27.575Z,0.20
2024-04-25T08:08:29.342Z,0.20
2024-04-25T08:09:31.726Z,0.20
2024-04-25T08:10:33.452Z,0.20
2024-04-25T08:11:35.339Z,0.20
2024-04-25T08:12:37.215Z,0.20
2024-04-25T08:13:39.163Z,0.20
2024-04-25T08:14:41.045Z,0.20
2024-04-25T08:15:44.330Z,0.10
2024-04-25T08:16:47.589Z,0.20
2024-04-25T08:17:49.460Z,0.20
2024-04-25T08:18:51.416Z,0.20
2024-04-25T08:19:53.110Z,0.20
2024-04-25T08:20:54.819Z,0.20
2024-04-25T08:21:56.606Z,0.10
2024-04-25T08:22:58.854Z,0.20
2024-04-25T08:24:00.753Z,0.20
2024-04-25T08:25:02.399Z,0.20
2024-04-25T08:26:04.282Z,0.13
2024-04-25T08:27:06.023Z,0.20
2024-04-25T08:28:10.545Z,0.20
2024-04-25T08:29:12.281Z,0.20
2024-04-25T08:30:14.064Z,0.20
2024-04-25T08:31:15.786Z,0.20
2024-04-25T08:32:17.601Z,0.20
2024-04-25T08:33:19.503Z,0.20
2024-04-25T08:34:21.446Z,0.20
2024-04-25T08:35:23.260Z,0.13
2024-04-25T08:36:25.094Z,0.20
2024-04-25T08:37:26.809Z,0.20
2024-04-25T08:38:28.587Z,0.20
2024-04-25T08:39:30.331Z,0.20
2024-04-25T08:40:34.625Z,0.20
2024-04-25T08:41:36.639Z,0.20
2024-04-25T08:42:38.806Z,0.20
2024-04-25T08:43:43.066Z,0.20
2024-04-25T08:44:45.085Z,0.20
2024-04-25T08:45:46.979Z,0.15
2024-04-25T08:46:50.068Z,0.20
2024-04-25T08:47:53.157Z,0.20
2024-04-25T08:49:00.172Z,0.10
2024-04-25T08:50:02.760Z,0.10
2024-04-25T08:51:05.290Z,0.20
2024-04-25T08:52:07.006Z,0.10
2024-04-25T08:53:08.930Z,0.20
2024-04-25T08:54:11.185Z,0.20
2024-04-25T08:55:14.475Z,0.20
2024-04-25T08:56:16.333Z,0.20
2024-04-25T08:57:18.007Z,0.20
2024-04-25T08:58:20.239Z,0.13
2024-04-25T08:59:22.120Z,0.20
2024-04-25T09:00:23.806Z,0.20
2024-04-25T09:01:27.911Z,0.10
2024-04-25T09:02:30.629Z,0.17
2024-04-25T09:03:32.498Z,0.20
2024-04-25T09:04:34.406Z,0.13
2024-04-25T09:05:36.654Z,0.10
2024-04-25T09:06:38.367Z,0.20
2024-04-25T09:07:43.430Z,0.10
2024-04-25T09:08:46.426Z,0.20
2024-04-25T09:09:48.137Z,0.20
2024-04-25T09:10:49.846Z,0.20
2024-04-25T09:11:52.090Z,0.17
2024-04-25T09:12:53.949Z,0.20
2024-04-25T09:13:57.162Z,0.17
2024-04-25T09:14:59.389Z,0.20
2024-04-25T09:16:01.990Z,0.20
2024-04-25T09:17:04.208Z,0.10
2024-04-25T09:18:06.154Z,0.10
2024-04-25T09:19:07.917Z,0.10
2024-04-25T09:20:10.414Z,0.10
2024-04-25T09:21:12.151Z,0.15
2024-04-25T09:22:13.973Z,0.20
2024-04-25T09:23:15.825Z,0.15
2024-04-25T09:24:18.562Z,0.10
2024-04-25T09:25:20.281Z,0.10
2024-04-25T09:26:22.536Z,0.20
2024-04-25T09:27:24.447Z,0.20
2024-04-25T09:28:26.320Z,0.20
2024-04-25T09:29:31.576Z,0.10
2024-04-25T09:30:33.500Z,0.10
2024-04-25T09:31:35.304Z,0.10
2024-04-25T09:32:41.259Z,0.10
2024-04-25T09:33:43.220Z,0.10
2024-04-25T09:34:45.166Z,0.20
2024-04-25T09:35:48.402Z,0.20
2024-04-25T09:36:50.297Z,0.13
2024-04-25T09:37:52.225Z,0.20
2024-04-25T09:38:53.976Z,0.20
2024-04-25T09:40:00.789Z,0.10
2024-04-25T09:41:09.622Z,0.20
2024-04-25T09:42:12.553Z,0.20
2024-04-25T09:43:14.769Z,0.20
2024-04-25T09:44:18.030Z,0.10
2024-04-25T09:45:23.795Z,0.20
2024-04-25T09:46:38.833Z,0.20
2024-04-25T09:47:54.195Z,0.20
2024-04-25T09:49:00.633Z,0.20
2024-04-25T09:50:10.254Z,0.20
2024-04-25T09:51:40.118Z,0.13
2024-04-25T09:52:48.701Z,0.10
2024-04-25T09:53:55.483Z,0.20
2024-04-25T09:55:03.247Z,0.20
2024-04-25T09:56:06.450Z,0.20
2024-04-25T09:57:11.023Z,0.20
2024-04-25T09:58:19.066Z,0.20
2024-04-25T09:59:33.433Z,0.20
2024-04-25T10:00:38.092Z,0.20
2024-04-25T10:01:40.942Z,0.20
2024-04-25T10:02:44.174Z,0.20
2024-04-25T10:03:46.696Z,0.10
2024-04-25T10:04:49.551Z,0.17
2024-04-25T10:05:52.110Z,0.20
2024-04-25T10:06:54.442Z,0.20
2024-04-25T10:07:56.360Z,0.20
2024-04-25T10:08:58.656Z,0.15
2024-04-25T10:10:01.046Z,0.20
2024-04-25T10:11:04.777Z,0.10
2024-04-25T10:12:08.771Z,0.20
2024-04-25T10:13:16.520Z,0.20
2024-04-25T10:14:25.178Z,0.20
2024-04-25T10:15:31.046Z,0.20
2024-04-25T10:16:32.799Z,0.10
2024-04-25T10:17:35.906Z,0.20
2024-04-25T10:18:48.145Z,0.10
2024-04-25T10:19:49.956Z,0.20
2024-04-25T10:21:02.006Z,0.10
2024-04-25T10:22:03.970Z,0.20
2024-04-25T10:23:05.782Z,0.10
2024-04-25T10:24:08.668Z,0.20
2024-04-25T10:25:13.979Z,0.10
2024-04-25T10:26:20.008Z,0.10
2024-04-25T10:27:22.254Z,0.20
2024-04-25T10:28:23.946Z,0.10
2024-04-25T10:29:34.618Z,0.10
2024-04-25T10:30:36.388Z,0.20
2024-04-25T10:31:39.334Z,0.20
2024-04-25T10:32:41.262Z,0.20
2024-04-25T10:33:43.060Z,0.10
2024-04-25T10:34:44.989Z,0.20
2024-04-25T10:35:46.928Z,0.20
2024-04-25T10:36:48.739Z,0.17
2024-04-25T10:37:50.434Z,0.20
2024-04-25T10:38:58.799Z,0.20
2024-04-25T10:40:01.165Z,0.20
2024-04-25T10:41:02.934Z,0.10
2024-04-25T10:42:04.633Z,0.10
2024-04-25T10:43:06.401Z,0.10
2024-04-25T10:44:10.435Z,0.10
2024-04-25T10:45:12.155Z,0.10
2024-04-25T10:46:13.959Z,0.10
2024-04-25T10:47:17.119Z,0.17
2024-04-25T10:48:19.229Z,0.20
2024-04-25T10:49:22.003Z,0.10
2024-04-25T10:50:24.338Z,0.10
2024-04-25T10:51:26.198Z,0.10
2024-04-25T10:52:28.067Z,0.20
2024-04-25T10:53:30.054Z,0.10
2024-04-25T10:54:32.117Z,0.10
2024-04-25T10:55:34.450Z,0.10
2024-04-25T10:56:36.987Z,0.10
2024-04-25T10:57:38.864Z,0.10
2024-04-25T10:58:52.422Z,0.13
2024-04-25T10:59:57.829Z,0.15
2024-04-25T11:00:59.656Z,0.20
2024-04-25T11:02:02.559Z,0.15
2024-04-25T11:03:04.630Z,0.10
2024-04-25T11:04:06.324Z,0.13
2024-04-25T11:05:08.298Z,0.15
2024-04-25T11:06:10.077Z,0.10
2024-04-25T11:07:12.608Z,0.20
2024-04-25T11:08:14.912Z,0.10
2024-04-25T11:09:18.737Z,0.10
2024-04-25T11:10:20.564Z,0.10
2024-04-25T11:11:23.423Z,0.10
2024-04-25T11:12:26.291Z,0.10
2024-04-25T11:13:28.157Z,0.10
2024-04-25T11:14:30.251Z,0.15
2024-04-25T11:15:32.148Z,0.10
2024-04-25T11:16:37.319Z,0.10
2024-04-25T11:17:46.716Z,0.15
2024-04-25T11:19:01.569Z,0.10
2024-04-25T11:20:10.169Z,0.15
2024-04-25T11:21:12.999Z,0.10
2024-04-25T11:22:25.592Z,0.10
2024-04-25T11:23:33.136Z,0.10
2024-04-25T11:24:35.006Z,0.13
2024-04-25T11:25:36.920Z,0.10
2024-04-25T11:26:38.831Z,0.10
2024-04-25T11:27:40.835Z,0.10
2024-04-25T11:28:42.581Z,0.10
2024-04-25T11:29:44.501Z,0.10
2024-04-25T11:30:46.519Z,0.17
2024-04-25T11:31:48.286Z,0.10
2024-04-25T11:32:50.158Z,0.10
2024-04-25T11:33:52.010Z,0.10
2024-04-25T11:34:53.796Z,0.10
2024-04-25T11:35:57.023Z,0.10
2024-04-25T11:37:05.694Z,0.10
2024-04-25T11:38:12.164Z,0.10
2024-04-25T11:39:16.858Z,0.10
2024-04-25T11:40:32.758Z,0.20
2024-04-25T11:41:34.685Z,0.10
2024-04-25T11:42:36.871Z,0.10
2024-04-25T11:43:39.488Z,0.10
2024-04-25T11:44:41.354Z,0.10
2024-04-25T11:45:44.428Z,0.15
2024-04-25T11:46:46.277Z,0.20
2024-04-25T11:47:48.251Z,0.17
2024-04-25T11:48:53.958Z,0.20
2024-04-25T11:49:55.779Z,0.15
2024-04-25T11:50:58.193Z,0.10
2024-04-25T11:52:00.914Z,0.17
2024-04-25T11:53:02.658Z,0.10
2024-04-25T11:54:04.418Z,0.10
2024-04-25T11:55:06.209Z,0.20
2024-04-25T11:56:08.085Z,0.20
2024-04-25T11:57:10.008Z,0.10
2024-04-25T11:58:11.747Z,0.20
2024-04-25T11:59:13.571Z,0.20
2024-04-25T12:00:15.494Z,0.10
2024-04-25T12:01:17.262Z,0.20
2024-04-25T12:02:19.008Z,0.10
2024-04-25T12:03:20.817Z,0.10
2024-04-25T12:04:22.732Z,0.15
2024-04-25T12:05:24.590Z,0.10
2024-04-25T12:06:28.491Z,0.20
2024-04-25T12:07:31.439Z,0.10
2024-04-25T12:08:33.162Z,0.15
2024-04-25T12:09:34.885Z,0.10
2024-04-25T12:10:37.742Z,0.10
2024-04-25T12:11:39.653Z,0.10
2024-04-25T12:12:41.503Z,0.10
2024-04-25T12:13:43.209Z,0.10
2024-04-25T12:14:44.985Z,0.10
2024-04-25T12:15:46.659Z,0.10
2024-04-25T12:16:48.422Z,0.10
2024-04-25T12:17:50.196Z,0.10
2024-04-25T12:18:51.970Z,0.10
2024-04-25T12:19:53.697Z,0.20
2024-04-25T12:20:56.259Z,0.10
2024-04-25T12:21:57.987Z,0.13
2024-04-25T12:22:59.776Z,0.10
2024-04-25T12:24:01.541Z,0.17
2024-04-25T12:25:03.382Z,0.20
2024-04-25T12:26:05.267Z,0.10
2024-04-25T12:27:07.076Z,0.10
2024-04-25T12:28:08.847Z,0.10
2024-04-25T12:29:10.683Z,0.10
2024-04-25T12:30:12.662Z,0.10
2024-04-25T12:31:14.642Z,0.10
2024-04-25T12:32:16.508Z,0.10
2024-04-25T12:33:18.581Z,0.10
2024-04-25T12:34:20.633Z,0.10
2024-04-25T12:35:22.541Z,0.10
2024-04-25T12:36:24.258Z,0.10
2024-04-25T12:37:25.931Z,0.10
2024-04-25T12:38:27.739Z,0.10
2024-04-25T12:39:29.564Z,0.10
2024-04-25T12:40:31.336Z,0.10
2024-04-25T12:41:33.231Z,0.10
2024-04-25T12:42:34.940Z,0.10
2024-04-25T12:43:36.650Z,0.10
2024-04-25T12:44:38.472Z,0.10
2024-04-25T12:45:40.430Z,0.10
2024-04-25T12:46:42.090Z,0.20
2024-04-25T12:47:43.806Z,0.10
2024-04-25T12:48:45.733Z,0.10
2024-04-25T12:49:47.571Z,0.10
2024-04-25T12:50:49.350Z,0.10
2024-04-25T12:51:51.154Z,0.10
2024-04-25T12:52:52.874Z,0.10
2024-04-25T12:53:54.795Z,0.10
2024-04-25T12:54:56.500Z,0.10
2024-04-25T12:55:58.227Z,0.20
2024-04-25T12:57:00.008Z,0.10
2024-04-25T12:58:01.727Z,0.20
2024-04-25T12:59:03.445Z,0.10
2024-04-25T13:00:05.862Z,0.10
2024-04-25T13:01:08.651Z,0.10
2024-04-25T13:02:10.495Z,0.10
2024-04-25T13:03:12.214Z,0.10
2024-04-25T13:04:14.047Z,0.10
2024-04-25T13:05:16.022Z,0.10
2024-04-25T13:06:17.819Z,0.10
2024-04-25T13:07:19.567Z,0.10
2024-04-25T13:08:21.392Z,0.10
2024-04-25T13:09:24.635Z,0.10
2024-04-25T13:10:27.560Z,0.10
2024-04-25T13:11:29.360Z,0.10
2024-04-25T13:12:31.087Z,0.10
2024-04-25T13:13:32.822Z,0.20
2024-04-25T13:14:34.580Z,0.10
2024-04-25T13:15:36.366Z,0.10
2024-04-25T13:16:38.084Z,0.13
2024-04-25T13:17:39.853Z,0.10
2024-04-25T13:18:41.874Z,0.13
2024-04-25T13:19:43.728Z,0.10
2024-04-25T13:20:45.538Z,0.10
2024-04-25T13:21:47.373Z,0.10
2024-04-25T13:22:49.145Z,0.10
2024-04-25T13:23:51.113Z,0.10
2024-04-25T13:24:52.993Z,0.10
2024-04-25T13:25:54.743Z,0.10
2024-04-25T13:26:58.133Z,0.15
2024-04-25T13:28:02.829Z,0.10
2024-04-25T13:29:04.590Z,0.10
2024-04-25T13:30:07.135Z,0.10
2024-04-25T13:31:08.852Z,0.10
2024-04-25T13:32:11.125Z,0.10
2024-04-25T13:33:12.891Z,0.10
2024-04-25T13:34:14.827Z,0.10
2024-04-25T13:35:16.713Z,0.10
2024-04-25T13:36:18.792Z,0.17
2024-04-25T13:37:20.533Z,0.10
2024-04-25T13:38:22.292Z,0.10
2024-04-25T13:39:23.989Z,0.20
2024-04-25T13:40:25.669Z,0.10
2024-04-25T13:41:27.355Z,0.10
2024-04-25T13:42:29.044Z,0.10
2024-04-25T13:43:33.789Z,0.10
2024-04-25T13:44:35.553Z,0.10
2024-04-25T13:45:37.314Z,0.10
2024-04-25T13:46:39.038Z,0.10
2024-04-25T13:47:40.901Z,0.10
2024-04-25T13:48:42.843Z,0.10
2024-04-25T13:49:44.653Z,0.10
2024-04-25T13:50:46.501Z,0.10